Mickle Trafford, United Kingdom
Current Conditions -  °F | °C
As of 3:20 PM on Friday 28 Nov 2014 (Local Time) from EGNR Reporting Station
Broken Clouds Broken Clouds  
Wind Chill: 52°   Ceiling: 2600
Heat Index: 52°   Visibility: 4mi
Dew Point: 50°   Wind: 5mph
Humidity: 94%   Direction: 40°NE
Pressure: 29.71"   Gusts: NA
Location:  53.22°N, 2.83°W
Report Text: EGNR 281520Z 04004KT 7000 SCT015 BKN026 11/10 Q1006
Loading
Personal Weather Stations






























Interactive Weather Map New forecast layout! Learn more

10-Day Weather Forecast

Advertisements
Track Severe Weather on mobile